Time;durP1;ratioP1;P1;durP2;ratioP2;P2;SDS_P1;SDS_P2;PMS_P1;PMS_P2;Temp;Humidity;BMP_temperature;BMP_pressure;BME280_temperature;BME280_humidity;BME280_pressure;Samples;Min_cycle;Max_cycle;Signal;HPM_P1;HPM_P2
2022/08/30 00:02:39;;;;;;;;;;;18.50;99.90;;;;;;5078307;28;19936;-77
2022/08/30 00:05:08;;;;;;;;;;;18.50;99.90;;;;;;5097677;28;19932;-77
2022/08/30 00:07:35;;;;;;;;;;;18.50;99.90;;;;;;5077267;28;19924;-78
2022/08/30 00:10:02;;;;;;;;;;;18.50;99.90;;;;;;5080106;28;19932;-77
2022/08/30 00:12:30;;;;;;;;;;;18.50;99.90;;;;;;5083831;28;19939;-77
2022/08/30 00:14:58;;;;;;;;;;;18.60;99.90;;;;;;5082671;28;19932;-78
2022/08/30 00:17:25;;;;;;;;;;;18.60;99.90;;;;;;5079257;28;20030;-78
2022/08/30 00:19:52;;;;;;;;;;;18.60;99.90;;;;;;5083027;28;20041;-78
2022/08/30 00:22:20;;;;;;;;;;;18.40;99.90;;;;;;5078900;28;19932;-78
2022/08/30 00:24:48;;;;;;;;;;;18.50;99.90;;;;;;5084414;28;19942;-77
2022/08/30 00:27:15;;;;;;;;;;;18.50;99.90;;;;;;5084781;28;20417;-77
2022/08/30 00:29:42;;;;;;;;;;;18.50;99.90;;;;;;5084107;28;19969;-78
2022/08/30 00:32:13;;;;;;;;;;;18.50;99.90;;;;;;5086137;28;19931;-78
2022/08/30 00:34:39;;;;;;;;;;;18.50;99.90;;;;;;5099902;28;19977;-78
2022/08/30 00:37:06;;;;;;;;;;;18.40;99.90;;;;;;5086585;28;19989;-78
2022/08/30 00:39:34;;;;;;;;;;;18.40;99.90;;;;;;5088158;28;20329;-78
2022/08/30 00:42:01;;;;;;;;;;;18.30;99.90;;;;;;5085350;28;19932;-78
2022/08/30 00:44:28;;;;;;;;;;;18.30;99.90;;;;;;5083184;28;19924;-78
2022/08/30 00:46:55;;;;;;;;;;;18.30;99.90;;;;;;5082781;28;20001;-77
2022/08/30 00:49:22;;;;;;;;;;;18.30;99.90;;;;;;5096936;28;19929;-78
2022/08/30 00:51:49;;;;;;;;;;;18.30;99.90;;;;;;5080348;28;20747;-78
2022/08/30 00:54:17;;;;;;;;;;;18.20;99.90;;;;;;5081647;28;19963;-77
2022/08/30 00:56:45;;;;;;;;;;;18.20;99.90;;;;;;5079042;28;19932;-77
2022/08/30 00:59:13;;;;;;;;;;;18.10;99.90;;;;;;5081003;28;19981;-78
2022/08/30 01:01:39;;;;;;;;;;;18.10;99.90;;;;;;5093239;28;19939;-78
2022/08/30 01:04:08;;;;;;;;;;;18.00;99.90;;;;;;5079085;28;19928;-78
2022/08/30 01:06:35;;;;;;;;;;;18.00;99.90;;;;;;5073595;28;19952;-78
2022/08/30 01:09:03;;;;;;;;;;;17.00;99.90;;;;;;5078761;28;19935;-78
2022/08/30 01:11:31;;;;;;;;;;;18.00;99.90;;;;;;5076672;28;19932;-79
2022/08/30 01:14:02;;;;;;;;;;;17.90;99.90;;;;;;5093634;28;20364;-79
2022/08/30 01:16:31;;;;;;;;;;;17.90;99.90;;;;;;5076299;28;19986;-78
2022/08/30 01:18:58;;;;;;;;;;;17.90;99.90;;;;;;5076133;28;20318;-78
2022/08/30 01:21:28;;;;;;;;;;;17.80;99.90;;;;;;5092558;28;19932;-77
2022/08/30 01:23:58;;;;;;;;;;;17.80;99.90;;;;;;5077428;28;20365;-77
2022/08/30 01:26:26;;;;;;;;;;;17.80;99.90;;;;;;5080427;28;19962;-77
2022/08/30 01:28:54;;;;;;;;;;;17.80;99.90;;;;;;5082220;28;20037;-77
2022/08/30 01:31:21;;;;;;;;;;;17.90;99.90;;;;;;5080041;28;20349;-78
2022/08/30 01:33:49;;;;;;;;;;;;;;;;;;5096671;28;19928;-77
2022/08/30 01:36:17;;;;;;;;;;;17.90;99.90;;;;;;5081316;28;20580;-77
2022/08/30 01:38:47;;;;;;;;;;;17.90;99.90;;;;;;5080326;28;19963;-77
2022/08/30 01:41:20;;;;;;;;;;;17.80;99.90;;;;;;5083297;28;19946;-77
2022/08/30 01:43:48;;;;;;;;;;;17.80;99.90;;;;;;5083000;28;20027;-77
2022/08/30 01:46:19;;;;;;;;;;;17.80;99.90;;;;;;5083820;28;19961;-77
2022/08/30 01:48:46;;;;;;;;;;;17.80;99.90;;;;;;5080343;28;19932;-78
2022/08/30 01:51:13;;;;;;;;;;;17.70;99.90;;;;;;5083717;28;20537;-77
2022/08/30 01:53:41;;;;;;;;;;;17.70;99.90;;;;;;5080880;28;20445;-77
2022/08/30 01:56:09;;;;;;;;;;;17.70;99.90;;;;;;5082208;28;19951;-77
2022/08/30 01:58:37;;;;;;;;;;;17.60;99.90;;;;;;5079473;28;20504;-78
2022/08/30 02:01:06;;;;;;;;;;;17.50;99.90;;;;;;5095256;28;19935;-77
2022/08/30 02:03:34;;;;;;;;;;;17.50;99.90;;;;;;5079941;28;19983;-77
2022/08/30 02:06:02;;;;;;;;;;;17.50;99.90;;;;;;5081576;28;21257;-77
2022/08/30 02:08:29;;;;;;;;;;;17.50;99.90;;;;;;5080034;28;19981;-78
2022/08/30 02:10:56;;;;;;;;;;;17.50;99.90;;;;;;5099881;28;19927;-78
2022/08/30 02:13:23;;;;;;;;;;;17.50;99.90;;;;;;5081027;28;19985;-78
2022/08/30 02:15:53;;;;;;;;;;;17.50;99.90;;;;;;5081127;28;20279;-78
2022/08/30 02:18:20;;;;;;;;;;;17.50;99.90;;;;;;5077900;28;20007;-77
2022/08/30 02:20:47;;;;;;;;;;;17.50;99.90;;;;;;5095486;28;19931;-78
2022/08/30 02:23:14;;;;;;;;;;;17.50;99.90;;;;;;5083213;28;20451;-77
2022/08/30 02:25:41;;;;;;;;;;;17.50;99.90;;;;;;5081857;28;19937;-77
2022/08/30 02:28:08;;;;;;;;;;;17.50;99.90;;;;;;5078780;28;19997;-77
2022/08/30 02:30:36;;;;;;;;;;;17.50;99.90;;;;;;5078509;28;19928;-77
2022/08/30 02:33:04;;;;;;;;;;;17.50;99.90;;;;;;5077122;28;19936;-77
2022/08/30 02:35:31;;;;;;;;;;;17.50;99.90;;;;;;5082745;28;20325;-76
2022/08/30 02:37:58;;;;;;;;;;;17.50;99.90;;;;;;5080816;28;20430;-77
2022/08/30 02:40:25;;;;;;;;;;;17.50;99.90;;;;;;5083571;28;19952;-77
2022/08/30 02:42:52;;;;;;;;;;;17.50;99.90;;;;;;5085296;28;19935;-76
2022/08/30 02:45:19;;;;;;;;;;;17.50;99.90;;;;;;5087765;28;20813;-76
2022/08/30 02:47:46;;;;;;;;;;;17.50;99.90;;;;;;5103317;28;19959;-77
2022/08/30 02:50:15;;;;;;;;;;;17.50;99.90;;;;;;5091305;28;19935;-76
2022/08/30 02:52:42;;;;;;;;;;;19.40;99.90;;;;;;5087714;28;19927;-77
2022/08/30 02:55:09;;;;;;;;;;;17.60;99.90;;;;;;5082919;28;19924;-77
2022/08/30 02:57:36;;;;;;;;;;;17.60;99.90;;;;;;5080113;28;19932;-77
2022/08/30 03:00:05;;;;;;;;;;;17.70;99.90;;;;;;5082476;28;19928;-77
2022/08/30 03:02:32;;;;;;;;;;;17.70;99.90;;;;;;5079095;28;19932;-78
2022/08/30 03:04:59;;;;;;;;;;;17.70;99.90;;;;;;5096775;28;19970;-77
2022/08/30 03:07:27;;;;;;;;;;;17.70;99.90;;;;;;5083010;28;19928;-78
2022/08/30 03:09:54;;;;;;;;;;;17.70;99.90;;;;;;5097032;28;20432;-78
2022/08/30 03:12:25;;;;;;;;;;;17.70;99.90;;;;;;5083349;28;20410;-77
2022/08/30 03:14:51;;;;;;;;;;;17.70;99.90;;;;;;5083164;28;21649;-78
2022/08/30 03:17:18;;;;;;;;;;;17.70;99.90;;;;;;5096907;27;19955;-78
2022/08/30 03:19:46;;;;;;;;;;;17.70;99.90;;;;;;5086160;28;19951;-79
2022/08/30 03:22:13;;;;;;;;;;;17.70;99.90;;;;;;5081008;28;19932;-79
2022/08/30 03:24:41;;;;;;;;;;;17.70;99.90;;;;;;5099419;28;19924;-79
2022/08/30 03:27:08;;;;;;;;;;;17.60;99.90;;;;;;5086932;28;20437;-79
2022/08/30 03:29:35;;;;;;;;;;;17.60;99.90;;;;;;5088965;28;19928;-79
2022/08/30 03:32:03;;;;;;;;;;;17.60;99.90;;;;;;5084845;28;19954;-77
2022/08/30 03:34:29;;;;;;;;;;;17.50;99.90;;;;;;5097346;28;19928;-76
2022/08/30 03:36:57;;;;;;;;;;;17.50;99.90;;;;;;5082040;28;19928;-79
2022/08/30 03:39:24;;;;;;;;;;;17.50;99.90;;;;;;5081751;28;20396;-75
2022/08/30 03:41:53;;;;;;;;;;;17.50;99.90;;;;;;5080882;28;19931;-76
2022/08/30 03:44:20;;;;;;;;;;;17.50;99.90;;;;;;5099512;27;19928;-77
2022/08/30 03:46:47;;;;;;;;;;;17.50;99.90;;;;;;5100811;28;19967;-81
2022/08/30 03:49:16;;;;;;;;;;;17.50;99.90;;;;;;5092521;28;19923;-80
2022/08/30 03:51:44;;;;;;;;;;;17.50;99.90;;;;;;5087253;28;19977;-81
2022/08/30 03:54:11;;;;;;;;;;;17.40;99.90;;;;;;5091983;28;19995;-82
2022/08/30 03:56:38;;;;;;;;;;;17.40;99.90;;;;;;5093678;28;19928;-81
2022/08/30 03:59:07;;;;;;;;;;;17.40;99.90;;;;;;5090781;28;21232;-80
2022/08/30 04:01:33;;;;;;;;;;;17.40;99.90;;;;;;5089207;28;20023;-80
2022/08/30 04:04:00;;;;;;;;;;;17.40;99.90;;;;;;5090776;28;20452;-83
2022/08/30 04:06:27;;;;;;;;;;;17.40;99.90;;;;;;5091328;28;19924;-80
2022/08/30 04:08:55;;;;;;;;;;;17.30;99.90;;;;;;5090511;28;19932;-81
2022/08/30 04:11:22;;;;;;;;;;;17.30;99.90;;;;;;5090064;28;20019;-80
2022/08/30 04:13:50;;;;;;;;;;;17.30;99.90;;;;;;5104900;28;19934;-80
2022/08/30 04:16:19;;;;;;;;;;;17.30;99.90;;;;;;5090559;28;19970;-80
2022/08/30 04:18:46;;;;;;;;;;;17.20;99.90;;;;;;5086755;28;20034;-80
2022/08/30 04:21:13;;;;;;;;;;;17.30;99.90;;;;;;5087445;28;19936;-81
2022/08/30 04:23:40;;;;;;;;;;;17.30;99.90;;;;;;5106836;28;19936;-81
2022/08/30 04:26:07;;;;;;;;;;;17.20;99.90;;;;;;5088100;28;20045;-81
2022/08/30 04:28:34;;;;;;;;;;;17.20;99.90;;;;;;5107634;28;19928;-81
2022/08/30 04:31:07;;;;;;;;;;;17.20;99.90;;;;;;5103958;28;20452;-81
2022/08/30 04:33:36;;;;;;;;;;;17.20;99.90;;;;;;5092608;28;19948;-83
2022/08/30 04:36:04;;;;;;;;;;;17.30;99.90;;;;;;5092301;28;19943;-82
2022/08/30 04:38:31;;;;;;;;;;;17.30;99.90;;;;;;5110275;28;20367;-83
2022/08/30 04:40:58;;;;;;;;;;;17.30;99.90;;;;;;5096783;28;19972;-84
2022/08/30 04:43:26;;;;;;;;;;;17.20;99.90;;;;;;5097474;28;19939;-83
2022/08/30 04:45:53;;;;;;;;;;;17.20;99.90;;;;;;5098096;28;19979;-84
2022/08/30 04:48:21;;;;;;;;;;;17.20;99.90;;;;;;5097995;28;19957;-83
2022/08/30 04:50:50;;;;;;;;;;;17.20;99.90;;;;;;5100745;28;19963;-83
2022/08/30 04:53:16;;;;;;;;;;;17.20;99.90;;;;;;5098674;28;19924;-83
2022/08/30 04:55:43;;;;;;;;;;;17.20;99.90;;;;;;5098281;28;19924;-84
2022/08/30 04:58:11;;;;;;;;;;;17.20;99.90;;;;;;5096160;28;19928;-82
2022/08/30 05:00:40;;;;;;;;;;;17.30;99.90;;;;;;5096172;28;19947;-83
2022/08/30 05:03:07;;;;;;;;;;;17.30;99.90;;;;;;5095476;28;20338;-85
2022/08/30 05:05:40;;;;;;;;;;;17.40;99.90;;;;;;5096530;28;19924;-83
2022/08/30 05:08:09;;;;;;;;;;;17.30;99.90;;;;;;5098010;28;19934;-83
2022/08/30 05:10:38;;;;;;;;;;;17.40;99.90;;;;;;5089711;28;20295;-83
2022/08/30 05:13:05;;;;;;;;;;;17.40;99.90;;;;;;5089802;28;19959;-82
2022/08/30 05:15:32;;;;;;;;;;;17.40;99.90;;;;;;5099359;28;19924;-81
2022/08/30 05:17:59;;;;;;;;;;;17.40;99.90;;;;;;5094487;28;20148;-81
2022/08/30 05:20:25;;;;;;;;;;;17.50;99.90;;;;;;5093304;28;19929;-81
2022/08/30 05:22:52;;;;;;;;;;;17.50;99.90;;;;;;5095798;28;19924;-82
2022/08/30 05:25:22;;;;;;;;;;;17.60;99.90;;;;;;5096300;28;19955;-81
2022/08/30 05:27:49;;;;;;;;;;;17.60;99.90;;;;;;5096459;28;19928;-81
2022/08/30 05:30:17;;;;;;;;;;;17.60;99.90;;;;;;5097552;28;20450;-82
2022/08/30 05:32:45;;;;;;;;;;;17.80;99.90;;;;;;5096512;28;19962;-82
2022/08/30 05:35:13;;;;;;;;;;;18.00;99.90;;;;;;5095846;28;19950;-81
2022/08/30 05:37:40;;;;;;;;;;;18.10;99.90;;;;;;5095783;28;20345;-83
2022/08/30 05:40:07;;;;;;;;;;;18.40;99.90;;;;;;5083535;28;20295;-82
2022/08/30 05:42:36;;;;;;;;;;;19.00;99.90;;;;;;5093004;28;20061;-82
2022/08/30 05:45:03;;;;;;;;;;;19.30;99.90;;;;;;5102773;28;19978;-82
2022/08/30 05:47:30;;;;;;;;;;;19.20;99.90;;;;;;5096164;28;19928;-82
2022/08/30 05:49:57;;;;;;;;;;;19.20;99.90;;;;;;5096645;28;19943;-82
2022/08/30 05:52:24;;;;;;;;;;;19.10;99.90;;;;;;5102498;28;19946;-81
2022/08/30 05:54:55;;;;;;;;;;;19.10;99.90;;;;;;5092913;28;20341;-82
2022/08/30 05:57:25;;;;;;;;;;;19.30;99.90;;;;;;5087256;28;19997;-83
2022/08/30 05:59:53;;;;;;;;;;;19.30;99.90;;;;;;5091309;28;19999;-83
2022/08/30 06:02:20;;;;;;;;;;;19.30;99.90;;;;;;5091052;28;19946;-83
2022/08/30 06:04:47;;;;;;;;;;;19.40;99.90;;;;;;5084459;22;20050;-76
2022/08/30 06:07:14;;;;;;;;;;;19.60;99.90;;;;;;5053072;28;20012;-77
2022/08/30 06:09:40;;;;;;;;;;;19.70;99.90;;;;;;5058865;28;19932;-78
2022/08/30 06:12:07;;;;;;;;;;;20.50;99.90;;;;;;5052445;28;19940;-76
2022/08/30 06:14:34;;;;;;;;;;;20.50;99.90;;;;;;5052477;28;19960;-76
2022/08/30 06:17:02;;;;;;;;;;;20.90;99.90;;;;;;5037551;28;19955;-76
2022/08/30 06:19:29;;;;;;;;;;;22.10;99.90;;;;;;5037704;28;19939;-76
2022/08/30 06:21:56;;;;;;;;;;;22.10;99.90;;;;;;5036416;28;19955;-75
2022/08/30 06:24:22;;;;;;;;;;;22.80;99.90;;;;;;5039655;28;19968;-75
2022/08/30 06:26:49;;;;;;;;;;;23.40;99.90;;;;;;5039229;28;19958;-76
2022/08/30 06:29:17;;;;;;;;;;;23.90;99.90;;;;;;5041000;28;19933;-76
2022/08/30 06:31:44;;;;;;;;;;;23.90;99.90;;;;;;5037956;28;19933;-77
2022/08/30 06:34:12;;;;;;;;;;;24.10;99.90;;;;;;5038938;28;19932;-77
2022/08/30 06:36:39;;;;;;;;;;;24.50;99.90;;;;;;5038514;28;19935;-77
2022/08/30 06:39:06;;;;;;;;;;;25.00;99.90;;;;;;5038678;28;19932;-76
2022/08/30 06:41:34;;;;;;;;;;;25.60;99.90;;;;;;5038476;28;20019;-76
2022/08/30 06:44:04;;;;;;;;;;;26.10;99.90;;;;;;5055244;28;20023;-75
2022/08/30 06:46:32;;;;;;;;;;;26.30;99.90;;;;;;5039800;28;19986;-75
2022/08/30 06:48:59;;;;;;;;;;;26.60;99.90;;;;;;5038286;28;20028;-76
2022/08/30 06:51:28;;;;;;;;;;;26.80;99.90;;;;;;5039046;28;19929;-75
2022/08/30 06:53:56;;;;;;;;;;;27.00;99.90;;;;;;5039556;28;19939;-75
2022/08/30 06:56:22;;;;;;;;;;;27.20;99.90;;;;;;5039559;28;19940;-75
2022/08/30 06:58:49;;;;;;;;;;;27.30;99.90;;;;;;5039980;28;19933;-75
2022/08/30 07:01:18;;;;;;;;;;;27.80;99.90;;;;;;5039450;28;19998;-77
2022/08/30 07:03:44;;;;;;;;;;;28.30;99.90;;;;;;5040467;28;19933;-76
2022/08/30 07:06:12;;;;;;;;;;;28.80;99.90;;;;;;5062947;28;19928;-76
2022/08/30 07:08:40;;;;;;;;;;;29.10;99.90;;;;;;5059656;28;19937;-76
2022/08/30 07:11:08;;;;;;;;;;;28.90;99.90;;;;;;5059880;28;20471;-75
2022/08/30 07:13:35;;;;;;;;;;;29.00;99.90;;;;;;5060112;28;20843;-76
2022/08/30 07:16:02;;;;;;;;;;;29.30;99.90;;;;;;5060126;28;19939;-76
2022/08/30 07:21:13;;;;;;;;;;;29.70;99.90;;;;;;5059170;28;19928;-78
2022/08/30 07:23:42;;;;;;;;;;;29.50;99.90;;;;;;5059856;28;20007;-76
2022/08/30 07:26:11;;;;;;;;;;;28.90;99.90;;;;;;5059106;28;19966;-76
2022/08/30 07:28:38;;;;;;;;;;;28.20;99.90;;;;;;5060493;28;19939;-77
2022/08/30 07:31:05;;;;;;;;;;;28.60;99.90;;;;;;5065036;28;19986;-77
2022/08/30 07:33:32;;;;;;;;;;;27.80;99.90;;;;;;5065421;28;19997;-76
2022/08/30 07:35:59;;;;;;;;;;;27.60;99.90;;;;;;5064212;28;20315;-77
2022/08/30 07:38:26;;;;;;;;;;;27.40;99.90;;;;;;5065767;28;19947;-78
2022/08/30 07:40:56;;;;;;;;;;;27.50;99.90;;;;;;5064261;28;19939;-76
2022/08/30 07:43:23;;;;;;;;;;;27.60;99.90;;;;;;5047222;28;19979;-77
2022/08/30 07:45:50;;;;;;;;;;;27.60;99.90;;;;;;5048900;28;20582;-77
2022/08/30 07:48:17;;;;;;;;;;;27.50;99.90;;;;;;5056805;28;19933;-77
2022/08/30 07:50:44;;;;;;;;;;;27.20;99.90;;;;;;5064941;28;20028;-77
2022/08/30 07:53:11;;;;;;;;;;;27.10;99.90;;;;;;5064272;28;20035;-77
2022/08/30 07:55:38;;;;;;;;;;;26.90;99.90;;;;;;5064520;28;20035;-78
2022/08/30 07:58:06;;;;;;;;;;;26.40;99.90;;;;;;5062463;28;20640;-77
2022/08/30 08:00:32;;;;;;;;;;;25.60;99.90;;;;;;5060949;28;19951;-77
2022/08/30 08:03:04;;;;;;;;;;;25.40;99.90;;;;;;5041975;28;19932;-77
2022/08/30 08:05:30;;;;;;;;;;;25.20;99.90;;;;;;5058468;28;20534;-77
2022/08/30 08:07:57;;;;;;;;;;;25.20;99.90;;;;;;5062466;28;20308;-77
2022/08/30 08:10:24;;;;;;;;;;;25.20;99.90;;;;;;5062751;28;19939;-77
2022/08/30 08:12:51;;;;;;;;;;;25.10;99.90;;;;;;5062581;28;20313;-77
2022/08/30 08:15:19;;;;;;;;;;;25.70;99.90;;;;;;5061934;28;20018;-77
2022/08/30 08:17:45;;;;;;;;;;;24.60;99.90;;;;;;5060633;28;19928;-77
2022/08/30 08:20:12;;;;;;;;;;;24.60;99.90;;;;;;5060460;28;19968;-77
2022/08/30 08:22:39;;;;;;;;;;;24.70;99.90;;;;;;5062404;28;19932;-77
2022/08/30 08:25:06;;;;;;;;;;;24.50;99.90;;;;;;5064341;28;19932;-76
2022/08/30 08:27:33;;;;;;;;;;;24.40;99.90;;;;;;5062374;28;19928;-77
2022/08/30 08:30:00;;;;;;;;;;;24.40;99.90;;;;;;5060593;28;20426;-75
2022/08/30 08:32:28;;;;;;;;;;;24.50;99.90;;;;;;5057111;28;20025;-76
2022/08/30 08:34:54;;;;;;;;;;;24.50;99.90;;;;;;5060947;28;19932;-76
2022/08/30 08:37:21;;;;;;;;;;;24.70;99.90;;;;;;5062103;28;19943;-78
2022/08/30 08:39:51;;;;;;;;;;;24.90;99.90;;;;;;5059938;28;19935;-77
2022/08/30 08:42:23;;;;;;;;;;;24.90;99.90;;;;;;5060374;28;19940;-76
2022/08/30 08:44:54;;;;;;;;;;;24.90;99.90;;;;;;5062000;28;19940;-76
2022/08/30 08:47:24;;;;;;;;;;;24.90;99.90;;;;;;5060796;28;20449;-76
2022/08/30 08:49:55;;;;;;;;;;;24.70;99.90;;;;;;5059911;28;19938;-76
2022/08/30 08:55:11;;;;;;;;;;;25.10;99.90;;;;;;5060332;28;19928;-78
2022/08/30 08:57:38;;;;;;;;;;;25.60;99.90;;;;;;5056533;28;19940;-76
2022/08/30 09:00:06;;;;;;;;;;;26.00;99.90;;;;;;5060794;28;20167;-76
2022/08/30 09:02:37;;;;;;;;;;;26.10;99.90;;;;;;5057942;28;19976;-79
2022/08/30 09:05:06;;;;;;;;;;;26.70;99.90;;;;;;5061344;28;19940;-76
2022/08/30 09:07:35;;;;;;;;;;;26.90;99.90;;;;;;5058398;28;19933;-78
2022/08/30 09:10:03;;;;;;;;;;;26.70;99.90;;;;;;5061676;28;19986;-79
2022/08/30 09:12:31;;;;;;;;;;;26.70;99.90;;;;;;5064044;28;19978;-84
2022/08/30 09:15:01;;;;;;;;;;;26.40;99.90;;;;;;5065114;28;19939;-76
2022/08/30 09:17:30;;;;;;;;;;;26.40;99.90;;;;;;5060778;28;19955;-83
2022/08/30 09:19:58;;;;;;;;;;;24.90;99.80;;;;;;5065093;28;19932;-75
2022/08/30 09:22:32;;;;;;;;;;;26.20;99.90;;;;;;5059513;28;19932;-80
2022/08/30 09:25:04;;;;;;;;;;;26.00;99.90;;;;;;5063280;28;21146;-76
2022/08/30 09:27:33;;;;;;;;;;;25.80;99.90;;;;;;5064276;28;20350;-82
2022/08/30 09:30:02;;;;;;;;;;;26.10;99.90;;;;;;5061813;28;19959;-84
2022/08/30 09:32:31;;;;;;;;;;;26.20;99.90;;;;;;5067262;28;19929;-77
2022/08/30 09:34:58;;;;;;;;;;;26.40;99.90;;;;;;5062038;28;19932;-79
2022/08/30 09:37:28;;;;;;;;;;;26.40;99.90;;;;;;5061432;28;20062;-75
2022/08/30 09:39:55;;;;;;;;;;;26.10;99.90;;;;;;5060928;28;20027;-76
2022/08/30 09:42:24;;;;;;;;;;;26.00;99.90;;;;;;5062543;28;20666;-80
2022/08/30 09:44:51;;;;;;;;;;;25.60;99.90;;;;;;5061619;28;19990;-76
2022/08/30 09:47:19;;;;;;;;;;;25.30;99.90;;;;;;5061009;28;20011;-76
2022/08/30 09:49:47;;;;;;;;;;;24.80;99.90;;;;;;5058860;28;20002;-77
2022/08/30 09:52:24;;;;;;;;;;;24.80;99.90;;;;;;5057914;28;19939;-76
2022/08/30 09:55:03;;;;;;;;;;;24.80;99.90;;;;;;5060126;28;19932;-77
2022/08/30 09:57:35;;;;;;;;;;;24.80;99.90;;;;;;5047508;28;19933;-75
2022/08/30 10:00:06;;;;;;;;;;;24.80;99.90;;;;;;5059888;28;19968;-77
2022/08/30 10:02:42;;;;;;;;;;;24.80;99.90;;;;;;5061881;28;20497;-74
2022/08/30 10:05:12;;;;;;;;;;;24.90;99.90;;;;;;5063292;28;19932;-79
2022/08/30 10:07:45;;;;;;;;;;;25.00;99.90;;;;;;5061154;28;19947;-74
2022/08/30 10:10:17;;;;;;;;;;;25.20;99.90;;;;;;5065814;28;19939;-78
2022/08/30 10:12:53;;;;;;;;;;;25.10;99.90;;;;;;5060244;28;19987;-77
2022/08/30 10:15:22;;;;;;;;;;;25.10;99.90;;;;;;5063865;28;19928;-77
2022/08/30 10:17:53;;;;;;;;;;;25.20;99.90;;;;;;5062179;28;19933;-77
2022/08/30 10:20:23;;;;;;;;;;;25.30;99.90;;;;;;5061500;28;19939;-75
2022/08/30 10:22:53;;;;;;;;;;;25.30;99.90;;;;;;5060307;28;20375;-77
2022/08/30 10:25:24;;;;;;;;;;;25.40;99.90;;;;;;5060247;28;20019;-78
2022/08/30 10:27:54;;;;;;;;;;;25.30;99.90;;;;;;5061015;28;19933;-75
2022/08/30 10:30:21;;;;;;;;;;;25.40;99.90;;;;;;5059422;28;19932;-74
2022/08/30 10:32:51;;;;;;;;;;;25.40;99.90;;;;;;5042632;28;19983;-76
2022/08/30 10:35:19;;;;;;;;;;;25.40;99.90;;;;;;5061449;28;19995;-73
2022/08/30 10:37:50;;;;;;;;;;;25.40;99.90;;;;;;5070569;28;20176;-75
2022/08/30 10:43:09;;;;;;;;;;;25.50;99.90;;;;;;5067967;28;20343;-72
2022/08/30 10:45:37;;;;;;;;;;;25.70;99.90;;;;;;5062513;28;19943;-72
2022/08/30 10:48:07;;;;;;;;;;;25.80;99.90;;;;;;5060257;28;20332;-73
2022/08/30 10:50:35;;;;;;;;;;;26.00;99.90;;;;;;5058641;28;19928;-72
2022/08/30 10:53:06;;;;;;;;;;;26.00;99.90;;;;;;5060083;28;19932;-73
2022/08/30 10:55:36;;;;;;;;;;;26.10;99.80;;;;;;5059386;28;19933;-74
2022/08/30 10:58:04;;;;;;;;;;;26.20;99.90;;;;;;5060056;28;19990;-73
2022/08/30 11:00:37;;;;;;;;;;;26.40;99.60;;;;;;5059114;28;19936;-73
2022/08/30 11:03:22;;;;;;;;;;;26.50;99.50;;;;;;5061528;28;19955;-73
2022/08/30 11:06:04;;;;;;;;;;;26.60;98.60;;;;;;5062340;28;19955;-74
2022/08/30 11:08:41;;;;;;;;;;;26.50;98.10;;;;;;5062049;28;19933;-72
2022/08/30 11:11:12;;;;;;;;;;;26.50;98.40;;;;;;5580811;22;20081;-74
2022/08/30 11:13:39;;;;;;;;;;;26.50;98.60;;;;;;5085366;28;19929;-72
2022/08/30 11:16:09;;;;;;;;;;;26.60;98.50;;;;;;5064741;28;19928;-72
2022/08/30 11:18:42;;;;;;;;;;;26.40;98.00;;;;;;5065518;28;19971;-72
2022/08/30 11:21:33;;;;;;;;;;;26.40;98.10;;;;;;5078376;28;20230;-75
2022/08/30 11:24:02;;;;;;;;;;;26.40;98.00;;;;;;5058441;28;19928;-77
2022/08/30 11:26:47;;;;;;;;;;;26.40;97.30;;;;;;5092007;22;19951;-71
2022/08/30 11:29:27;;;;;;;;;;;26.50;97.80;;;;;;5069258;28;19977;-72
2022/08/30 11:31:56;;;;;;;;;;;26.60;98.00;;;;;;5076882;28;19928;-71
2022/08/30 11:34:38;;;;;;;;;;;26.90;97.80;;;;;;5088053;28;19935;-71
2022/08/30 11:37:05;;;;;;;;;;;27.00;97.30;;;;;;5075967;28;19974;-71
2022/08/30 11:39:41;;;;;;;;;;;27.10;97.30;;;;;;5083754;28;19932;-72
2022/08/30 11:42:12;;;;;;;;;;;27.20;97.10;;;;;;5100630;28;19924;-71
2022/08/30 11:44:39;;;;;;;;;;;27.80;96.80;;;;;;5083826;28;20445;-72
2022/08/30 11:47:20;;;;;;;;;;;27.50;95.90;;;;;;5081014;28;19924;-71
2022/08/30 11:50:01;;;;;;;;;;;27.40;95.90;;;;;;5081732;28;19955;-72
2022/08/30 11:52:34;;;;;;;;;;;27.20;95.90;;;;;;5080319;28;19928;-72
2022/08/30 11:55:19;;;;;;;;;;;26.70;96.20;;;;;;5082227;28;19997;-71
2022/08/30 11:57:49;;;;;;;;;;;26.70;96.50;;;;;;5082945;28;19924;-71
2022/08/30 12:00:26;;;;;;;;;;;26.60;96.30;;;;;;5080810;28;19928;-70
2022/08/30 12:02:55;;;;;;;;;;;26.40;96.40;;;;;;5084471;28;19924;-70
2022/08/30 12:05:49;;;;;;;;;;;26.40;96.20;;;;;;5084076;28;19932;-70
2022/08/30 12:08:34;;;;;;;;;;;26.40;96.40;;;;;;5053066;28;20073;-70
2022/08/30 12:11:03;;;;;;;;;;;26.50;96.70;;;;;;5085598;28;20659;-70
2022/08/30 12:13:49;;;;;;;;;;;26.60;96.20;;;;;;5073243;28;20383;-70
2022/08/30 12:16:18;;;;;;;;;;;26.80;95.80;;;;;;5082922;28;19973;-70
2022/08/30 12:18:45;;;;;;;;;;;26.90;95.60;;;;;;5081306;28;19928;-70
2022/08/30 12:21:22;;;;;;;;;;;27.00;95.70;;;;;;5078722;28;20369;-70
2022/08/30 12:23:51;;;;;;;;;;;27.20;95.60;;;;;;5079379;28;19924;-71
2022/08/30 12:26:29;;;;;;;;;;;27.40;94.90;;;;;;5084919;28;19976;-70
2022/08/30 12:29:07;;;;;;;;;;;27.50;94.80;;;;;;5077090;28;19960;-71
2022/08/30 12:31:39;;;;;;;;;;;27.70;94.40;;;;;;5076256;28;19924;-70
2022/08/30 12:34:06;;;;;;;;;;;27.80;94.50;;;;;;5074410;28;20310;-70
2022/08/30 12:36:38;;;;;;;;;;;26.50;93.20;;;;;;5079512;28;19928;-70
2022/08/30 12:39:06;;;;;;;;;;;28.10;93.40;;;;;;5078124;28;20015;-70
2022/08/30 12:41:34;;;;;;;;;;;28.20;93.50;;;;;;5083566;28;19928;-70
2022/08/30 12:44:01;;;;;;;;;;;28.30;93.10;;;;;;5070940;28;19940;-70
2022/08/30 12:46:28;;;;;;;;;;;28.20;91.90;;;;;;5077565;28;19931;-70
2022/08/30 12:48:55;;;;;;;;;;;28.10;92.20;;;;;;5081097;28;19928;-70
2022/08/30 12:51:29;;;;;;;;;;;27.90;92.20;;;;;;5077501;28;19928;-70
2022/08/30 12:54:03;;;;;;;;;;;27.80;92.20;;;;;;5084031;28;19928;-70
2022/08/30 12:59:44;;;;;;;;;;;27.80;92.60;;;;;;5099955;27;19920;-70
2022/08/30 13:02:13;;;;;;;;;;;28.00;92.80;;;;;;5104083;28;19932;-70
2022/08/30 13:04:40;;;;;;;;;;;28.10;92.50;;;;;;5106812;28;19936;-70
2022/08/30 13:07:07;;;;;;;;;;;27.90;91.90;;;;;;5097760;28;20072;-70
2022/08/30 13:09:35;;;;;;;;;;;27.80;92.20;;;;;;5093495;28;19997;-70
2022/08/30 13:12:02;;;;;;;;;;;27.90;92.20;;;;;;5089228;28;19981;-70
2022/08/30 13:14:34;;;;;;;;;;;28.00;91.40;;;;;;5110684;28;19936;-70
2022/08/30 13:17:10;;;;;;;;;;;27.90;90.80;;;;;;5098018;28;19986;-70
2022/08/30 13:19:37;;;;;;;;;;;27.80;91.10;;;;;;5096476;28;19928;-70
2022/08/30 13:22:06;;;;;;;;;;;27.90;90.80;;;;;;5094214;28;19928;-70
2022/08/30 13:24:32;;;;;;;;;;;28.10;90.80;;;;;;5099787;27;19935;-70
2022/08/30 13:27:05;;;;;;;;;;;28.20;90.30;;;;;;5093305;28;19951;-70
2022/08/30 13:29:31;;;;;;;;;;;28.20;89.00;;;;;;5096566;28;20361;-70
2022/08/30 13:31:58;;;;;;;;;;;28.10;90.10;;;;;;5092613;28;20372;-72
2022/08/30 13:34:26;;;;;;;;;;;28.10;90.30;;;;;;5091584;28;20271;-71
2022/08/30 13:36:54;;;;;;;;;;;28.20;90.50;;;;;;5092883;28;19936;-69
2022/08/30 13:39:21;;;;;;;;;;;28.20;90.50;;;;;;5092513;28;20397;-71
2022/08/30 13:41:48;;;;;;;;;;;28.20;90.60;;;;;;5096363;28;20334;-71
2022/08/30 13:44:15;;;;;;;;;;;28.20;90.80;;;;;;5105035;28;19943;-72
2022/08/30 13:46:43;;;;;;;;;;;28.20;90.70;;;;;;5107463;28;19927;-71
2022/08/30 13:49:15;;;;;;;;;;;28.20;90.40;;;;;;5093774;28;19928;-71
2022/08/30 13:51:43;;;;;;;;;;;28.10;90.50;;;;;;5100133;28;20392;-70
2022/08/30 13:54:09;;;;;;;;;;;28.20;90.50;;;;;;5104641;28;20334;-70
2022/08/30 13:56:36;;;;;;;;;;;28.30;90.40;;;;;;5102441;27;20261;-70
2022/08/30 13:59:03;;;;;;;;;;;28.10;89.90;;;;;;5120904;28;20404;-71
2022/08/30 14:01:29;;;;;;;;;;;27.80;90.20;;;;;;5120190;28;19928;-71
2022/08/30 14:03:56;;;;;;;;;;;27.80;90.50;;;;;;5120595;28;19949;-71
2022/08/30 14:06:23;;;;;;;;;;;27.80;90.20;;;;;;5118501;28;19924;-71
2022/08/30 14:08:52;;;;;;;;;;;27.80;90.30;;;;;;5116913;28;21517;-72
2022/08/30 14:11:19;;;;;;;;;;;27.80;90.30;;;;;;5100268;28;19935;-71
2022/08/30 14:13:47;;;;;;;;;;;27.90;90.30;;;;;;5107966;27;20023;-70
2022/08/30 14:16:14;;;;;;;;;;;28.10;90.20;;;;;;5103059;27;19923;-69
2022/08/30 14:18:40;;;;;;;;;;;28.10;89.20;;;;;;5099956;28;20546;-70
2022/08/30 14:21:07;;;;;;;;;;;26.30;87.70;;;;;;5101468;27;20625;-69
2022/08/30 14:23:34;;;;;;;;;;;28.00;88.30;;;;;;5102686;28;20258;-69
2022/08/30 14:26:04;;;;;;;;;;;28.30;88.40;;;;;;5100021;27;19951;-71
2022/08/30 14:28:30;;;;;;;;;;;28.30;88.40;;;;;;5099179;28;19928;-70
2022/08/30 14:30:57;;;;;;;;;;;28.10;87.80;;;;;;5100238;28;20137;-70
2022/08/30 14:33:24;;;;;;;;;;;28.10;87.70;;;;;;5105952;27;20769;-70
2022/08/30 14:35:50;;;;;;;;;;;27.90;87.00;;;;;;5106468;28;20411;-69
2022/08/30 14:38:17;;;;;;;;;;;28.00;87.70;;;;;;5102909;28;19924;-70
2022/08/30 14:40:44;;;;;;;;;;;28.00;87.30;;;;;;5099440;27;20035;-70